createdAt,value
2019-02-26T00:00:51.939Z,4.78
2019-02-26T00:01:52.995Z,4.77
2019-02-26T00:02:52.982Z,4.82
2019-02-26T00:03:51.352Z,4.77
2019-02-26T00:04:53.533Z,4.70
2019-02-26T00:05:52.221Z,4.80
2019-02-26T00:06:51.832Z,4.82
2019-02-26T00:07:53.018Z,4.75
2019-02-26T00:08:53.283Z,4.60
2019-02-26T00:09:53.243Z,4.63
2019-02-26T00:10:54.709Z,4.67
2019-02-26T00:11:51.298Z,4.66
2019-02-26T00:12:51.291Z,4.70
2019-02-26T00:13:52.350Z,4.66
2019-02-26T00:14:54.264Z,4.67
2019-02-26T00:15:51.269Z,4.66
2019-02-26T00:16:51.263Z,4.67
2019-02-26T00:17:52.895Z,4.74
2019-02-26T00:18:51.254Z,4.90
2019-02-26T00:19:51.247Z,5.02
2019-02-26T00:20:51.237Z,5.02
2019-02-26T00:21:51.968Z,5.18
2019-02-26T00:22:52.976Z,5.10
2019-02-26T00:23:53.047Z,5.17
2019-02-26T00:24:51.209Z,5.25
2019-02-26T00:25:51.203Z,5.18
2019-02-26T00:26:51.196Z,5.12
2019-02-26T00:27:52.455Z,5.18
2019-02-26T00:28:51.182Z,5.07
2019-02-26T00:29:52.649Z,5.07
2019-02-26T00:30:51.170Z,5.00
2019-02-26T00:31:52.842Z,5.14
2019-02-26T00:32:53.133Z,5.12
2019-02-26T00:33:51.148Z,5.14
2019-02-26T00:34:53.069Z,5.12
2019-02-26T00:35:51.138Z,5.28
2019-02-26T00:36:51.126Z,5.30
2019-02-26T00:37:52.929Z,5.38
2019-02-26T00:38:51.114Z,5.35
2019-02-26T00:39:51.778Z,5.23
2019-02-26T00:40:51.101Z,5.15
2019-02-26T00:41:53.214Z,5.18
2019-02-26T00:42:54.381Z,5.12
2019-02-26T00:43:53.172Z,5.05
2019-02-26T00:44:53.291Z,5.00
2019-02-26T00:45:53.247Z,5.05
2019-02-26T00:46:53.444Z,5.17
2019-02-26T00:47:51.053Z,5.15
2019-02-26T00:48:51.043Z,5.10
2019-02-26T00:49:52.952Z,5.05
2019-02-26T00:50:52.330Z,4.93
2019-02-26T00:51:52.799Z,4.89
2019-02-26T00:52:52.359Z,4.75
2019-02-26T00:53:52.811Z,4.80
2019-02-26T00:54:53.559Z,4.78
2019-02-26T00:55:51.630Z,4.70
2019-02-26T00:56:50.990Z,4.66
2019-02-26T00:57:50.982Z,4.68
2019-02-26T00:58:50.975Z,4.62
2019-02-26T00:59:50.968Z,4.56
2019-02-26T01:00:50.960Z,4.53
2019-02-26T01:01:52.492Z,4.58
2019-02-26T01:02:50.951Z,4.48
2019-02-26T01:03:51.777Z,4.44
2019-02-26T01:04:51.011Z,4.42
2019-02-26T01:05:50.927Z,4.41
2019-02-26T01:06:50.921Z,4.37
2019-02-26T01:07:52.587Z,4.45
2019-02-26T01:08:50.905Z,4.52
2019-02-26T01:09:52.489Z,4.62
2019-02-26T01:10:50.893Z,4.63
2019-02-26T01:11:52.025Z,4.68
2019-02-26T01:12:50.877Z,4.82
2019-02-26T01:13:52.729Z,4.68
2019-02-26T01:14:50.863Z,4.67
2019-02-26T01:15:50.856Z,4.67
2019-02-26T01:16:50.849Z,4.74
2019-02-26T01:17:50.843Z,4.77
2019-02-26T01:18:51.042Z,4.70
2019-02-26T01:19:50.829Z,4.66
2019-02-26T01:20:52.502Z,4.70
2019-02-26T01:21:50.814Z,4.68
2019-02-26T01:22:50.807Z,4.60
2019-02-26T01:23:50.801Z,4.58
2019-02-26T01:24:51.962Z,4.53
2019-02-26T01:25:54.201Z,4.53
2019-02-26T01:26:50.778Z,4.44
2019-02-26T01:27:53.094Z,4.45
2019-02-26T01:28:51.158Z,4.38
2019-02-26T01:29:51.805Z,4.32
2019-02-26T01:30:53.669Z,4.45
2019-02-26T01:31:50.743Z,4.53
2019-02-26T01:32:50.735Z,4.66
2019-02-26T01:33:50.907Z,4.66
2019-02-26T01:34:50.723Z,4.73
2019-02-26T01:35:52.719Z,4.77
2019-02-26T01:36:50.707Z,4.77
2019-02-26T01:37:51.383Z,4.67
2019-02-26T01:38:51.056Z,4.70
2019-02-26T01:39:52.200Z,4.60
2019-02-26T01:40:51.864Z,4.56
2019-02-26T01:41:53.200Z,4.45
2019-02-26T01:42:52.869Z,4.40
2019-02-26T01:43:50.657Z,4.37
2019-02-26T01:44:50.650Z,4.38
2019-02-26T01:45:51.533Z,4.31
2019-02-26T01:46:50.636Z,4.37
2019-02-26T01:47:52.657Z,4.41
2019-02-26T01:48:50.623Z,4.53
2019-02-26T01:49:51.140Z,4.67
2019-02-26T01:50:52.050Z,4.71
2019-02-26T01:51:51.857Z,4.63
2019-02-26T01:52:51.807Z,4.59
2019-02-26T01:53:51.885Z,4.45
2019-02-26T01:54:51.380Z,4.41
2019-02-26T01:55:50.612Z,4.40
2019-02-26T01:56:50.902Z,4.40
2019-02-26T01:57:50.556Z,4.49
2019-02-26T01:58:56.572Z,4.45
2019-02-26T01:59:50.684Z,4.49
2019-02-26T02:00:50.542Z,4.52
2019-02-26T02:01:51.856Z,4.41
2019-02-26T02:02:50.524Z,4.31
2019-02-26T02:03:52.731Z,4.38
2019-02-26T02:04:50.510Z,4.37
2019-02-26T02:05:52.463Z,4.42
2019-02-26T02:06:50.494Z,4.32
2019-02-26T02:07:51.797Z,4.22
2019-02-26T02:08:52.484Z,4.19
2019-02-26T02:09:51.310Z,4.17
2019-02-26T02:10:53.635Z,4.24
2019-02-26T02:11:50.455Z,4.24
2019-02-26T02:12:50.450Z,4.16
2019-02-26T02:13:50.442Z,4.19
2019-02-26T02:14:50.435Z,4.16
2019-02-26T02:15:50.426Z,4.23
2019-02-26T02:16:50.421Z,4.14
2019-02-26T02:17:50.415Z,4.16
2019-02-26T02:18:51.349Z,4.02
2019-02-26T02:19:50.398Z,4.10
2019-02-26T02:20:50.392Z,4.04
2019-02-26T02:21:51.498Z,3.98
2019-02-26T02:22:50.377Z,3.95
2019-02-26T02:23:50.907Z,3.88
2019-02-26T02:24:50.965Z,3.99
2019-02-26T02:25:50.356Z,3.98
2019-02-26T02:26:52.631Z,4.02
2019-02-26T02:27:54.136Z,4.01
2019-02-26T02:28:50.334Z,4.05
2019-02-26T02:29:50.682Z,4.04
2019-02-26T02:30:50.321Z,4.06
2019-02-26T02:31:52.153Z,4.05
2019-02-26T02:32:54.062Z,4.10
2019-02-26T02:33:50.302Z,4.19
2019-02-26T02:34:50.291Z,4.40
2019-02-26T02:35:50.284Z,4.38
2019-02-26T02:36:50.275Z,4.45
2019-02-26T02:37:52.981Z,4.52
2019-02-26T02:38:50.261Z,4.50
2019-02-26T02:39:50.255Z,4.48
2019-02-26T02:40:52.763Z,4.35
2019-02-26T02:41:51.675Z,4.40
2019-02-26T02:42:50.234Z,4.35
2019-02-26T02:43:50.223Z,4.24
2019-02-26T02:44:52.566Z,4.34
2019-02-26T02:45:52.929Z,4.31
2019-02-26T02:46:50.205Z,4.24
2019-02-26T02:47:54.787Z,4.28
2019-02-26T02:48:50.187Z,4.30
2019-02-26T02:49:50.188Z,4.35
2019-02-26T02:50:50.175Z,4.35
2019-02-26T02:51:50.171Z,4.38
2019-02-26T02:52:50.942Z,4.28
2019-02-26T02:53:51.097Z,4.28
2019-02-26T02:54:51.796Z,4.23
2019-02-26T02:55:51.629Z,4.22
2019-02-26T02:56:50.131Z,4.19
2019-02-26T02:57:52.652Z,4.01
2019-02-26T02:58:51.599Z,4.01
2019-02-26T02:59:50.109Z,4.05
2019-02-26T03:00:52.206Z,4.01
2019-02-26T03:01:52.707Z,4.02
2019-02-26T03:02:52.316Z,4.05
2019-02-26T03:03:50.436Z,4.04
2019-02-26T03:04:50.070Z,4.02
2019-02-26T03:05:50.071Z,4.06
2019-02-26T03:06:50.837Z,4.04
2019-02-26T03:07:51.641Z,4.01
2019-02-26T03:08:51.057Z,4.13
2019-02-26T03:09:50.038Z,4.13
2019-02-26T03:10:50.027Z,4.10
2019-02-26T03:11:52.527Z,4.01
2019-02-26T03:12:54.276Z,4.13
2019-02-26T03:13:51.336Z,4.06
2019-02-26T03:14:49.999Z,4.06
2019-02-26T03:15:51.027Z,4.02
2019-02-26T03:16:51.438Z,3.95
2019-02-26T03:17:49.976Z,3.98
2019-02-26T03:18:49.973Z,3.98
2019-02-26T03:19:49.960Z,3.96
2019-02-26T03:20:51.380Z,3.99
2019-02-26T03:21:51.921Z,3.98
2019-02-26T03:22:49.939Z,3.92
2019-02-26T03:23:49.933Z,3.96
2019-02-26T03:24:51.272Z,4.02
2019-02-26T03:25:52.002Z,4.05
2019-02-26T03:26:49.911Z,4.04
2019-02-26T03:27:49.903Z,3.96
2019-02-26T03:28:51.482Z,4.10
2019-02-26T03:29:52.162Z,3.88
2019-02-26T03:30:49.883Z,3.92
2019-02-26T03:31:54.836Z,4.02
2019-02-26T03:32:52.228Z,4.10
2019-02-26T03:33:49.863Z,4.06
2019-02-26T03:34:49.854Z,4.01
2019-02-26T03:35:49.847Z,4.06
2019-02-26T03:36:49.837Z,3.98
2019-02-26T03:37:54.023Z,3.98
2019-02-26T03:38:51.147Z,3.98
2019-02-26T03:39:49.814Z,4.04
2019-02-26T03:40:51.896Z,3.99
2019-02-26T03:41:51.084Z,3.99
2019-02-26T03:42:49.792Z,4.10
2019-02-26T03:43:49.784Z,3.96
2019-02-26T03:44:49.785Z,3.96
2019-02-26T03:45:49.770Z,3.88
2019-02-26T03:46:49.763Z,3.92
2019-02-26T03:47:49.756Z,3.83
2019-02-26T03:48:49.748Z,3.86
2019-02-26T03:49:49.740Z,3.83
2019-02-26T03:50:49.742Z,3.92
2019-02-26T03:51:49.724Z,3.81
2019-02-26T03:52:49.720Z,3.84
2019-02-26T03:53:49.709Z,3.94
2019-02-26T03:54:50.729Z,3.92
2019-02-26T03:55:49.698Z,3.91
2019-02-26T03:56:49.687Z,3.95
2019-02-26T03:57:52.892Z,3.99
2019-02-26T03:58:52.166Z,3.96
2019-02-26T03:59:49.669Z,3.91
2019-02-26T04:00:49.661Z,3.96
2019-02-26T04:01:49.652Z,3.96
2019-02-26T04:02:51.686Z,3.95
2019-02-26T04:03:49.635Z,3.91
2019-02-26T04:04:53.962Z,3.91
2019-02-26T04:05:49.620Z,3.92
2019-02-26T04:06:49.613Z,3.91
2019-02-26T04:07:52.457Z,3.95
2019-02-26T04:08:52.567Z,4.02
2019-02-26T04:09:52.413Z,3.98
2019-02-26T04:10:49.931Z,4.06
2019-02-26T04:11:51.031Z,3.95
2019-02-26T04:12:52.302Z,4.06
2019-02-26T04:13:51.577Z,4.12
2019-02-26T04:14:49.554Z,3.99
2019-02-26T04:15:51.518Z,3.98
2019-02-26T04:16:49.545Z,3.96
2019-02-26T04:17:49.534Z,3.92
2019-02-26T04:18:51.984Z,3.98
2019-02-26T04:19:49.517Z,3.91
2019-02-26T04:20:49.510Z,3.88
2019-02-26T04:21:49.504Z,3.92
2019-02-26T04:22:50.789Z,3.99
2019-02-26T04:23:49.485Z,4.02
2019-02-26T04:24:50.024Z,4.01
2019-02-26T04:25:51.475Z,4.04
2019-02-26T04:26:49.475Z,4.06
2019-02-26T04:27:49.456Z,4.08
2019-02-26T04:28:49.450Z,3.94
2019-02-26T04:29:49.479Z,3.91
2019-02-26T04:30:50.314Z,3.95
2019-02-26T04:31:52.009Z,3.99
2019-02-26T04:32:49.420Z,3.98
2019-02-26T04:33:49.412Z,3.95
2019-02-26T04:34:51.268Z,3.95
2019-02-26T04:35:50.239Z,3.94
2019-02-26T04:36:49.398Z,3.96
2019-02-26T04:37:49.382Z,3.96
2019-02-26T04:38:50.676Z,4.05
2019-02-26T04:39:49.366Z,4.02
2019-02-26T04:40:49.359Z,4.13
2019-02-26T04:41:49.353Z,4.14
2019-02-26T04:42:49.347Z,4.10
2019-02-26T04:43:51.966Z,4.05
2019-02-26T04:44:52.371Z,4.02
2019-02-26T04:45:49.324Z,4.05
2019-02-26T04:46:51.391Z,3.98
2019-02-26T04:47:51.878Z,3.94
2019-02-26T04:48:49.299Z,3.98
2019-02-26T04:49:49.301Z,3.95
2019-02-26T04:50:49.286Z,3.83
2019-02-26T04:51:50.526Z,3.80
2019-02-26T04:52:49.271Z,3.66
2019-02-26T04:53:51.075Z,3.65
2019-02-26T04:54:49.258Z,3.68
2019-02-26T04:55:49.249Z,3.62
2019-02-26T04:56:50.996Z,3.55
2019-02-26T04:57:51.099Z,3.53
2019-02-26T04:58:49.227Z,3.53
2019-02-26T04:59:49.220Z,3.58
2019-02-26T05:00:49.216Z,3.62
2019-02-26T05:01:51.847Z,3.55
2019-02-26T05:02:49.198Z,3.55
2019-02-26T05:03:49.190Z,3.55
2019-02-26T05:04:49.182Z,3.47
2019-02-26T05:05:51.242Z,3.48
2019-02-26T05:06:49.169Z,3.51
2019-02-26T05:07:50.011Z,3.47
2019-02-26T05:08:49.178Z,3.51
2019-02-26T05:09:51.134Z,3.58
2019-02-26T05:10:51.713Z,3.59
2019-02-26T05:11:49.133Z,3.62
2019-02-26T05:12:49.120Z,3.56
2019-02-26T05:13:49.114Z,3.58
2019-02-26T05:14:49.109Z,3.69
2019-02-26T05:15:49.100Z,3.69
2019-02-26T05:16:49.091Z,3.74
2019-02-26T05:17:49.083Z,3.83
2019-02-26T05:18:49.608Z,3.73
2019-02-26T05:19:51.566Z,3.78
2019-02-26T05:20:49.072Z,3.78
2019-02-26T05:21:49.053Z,3.81
2019-02-26T05:22:49.045Z,3.81
2019-02-26T05:23:49.529Z,3.83
2019-02-26T05:24:50.280Z,3.78
2019-02-26T05:25:49.022Z,3.76
2019-02-26T05:26:49.016Z,3.69
2019-02-26T05:27:50.847Z,3.65
2019-02-26T05:28:49.727Z,3.63
2019-02-26T05:29:49.644Z,3.65
2019-02-26T05:30:51.259Z,3.58
2019-02-26T05:31:48.982Z,3.55
2019-02-26T05:32:51.100Z,3.58
2019-02-26T05:33:50.147Z,3.47
2019-02-26T05:34:50.811Z,3.50
2019-02-26T05:35:49.513Z,3.48
2019-02-26T05:36:48.944Z,3.50
2019-02-26T05:37:48.933Z,3.51
2019-02-26T05:38:49.281Z,3.44
2019-02-26T05:39:51.089Z,3.41
2019-02-26T05:40:50.827Z,3.36
2019-02-26T05:41:52.258Z,3.34
2019-02-26T05:42:48.905Z,3.31
2019-02-26T05:43:52.109Z,3.31
2019-02-26T05:44:48.964Z,3.37
2019-02-26T05:45:50.852Z,3.34
2019-02-26T05:46:50.781Z,3.29
2019-02-26T05:47:50.709Z,3.36
2019-02-26T05:48:51.072Z,3.40
2019-02-26T05:49:48.841Z,3.58
2019-02-26T05:50:48.835Z,3.59
2019-02-26T05:51:48.826Z,3.60
2019-02-26T05:52:50.241Z,3.66
2019-02-26T05:53:48.813Z,3.62
2019-02-26T05:54:48.804Z,3.58
2019-02-26T05:55:51.242Z,3.66
2019-02-26T05:56:49.825Z,3.69
2019-02-26T05:57:48.874Z,3.77
2019-02-26T05:58:48.774Z,3.92
2019-02-26T05:59:48.766Z,3.92
2019-02-26T06:00:48.759Z,3.73
2019-02-26T06:01:51.953Z,3.74
2019-02-26T06:02:51.033Z,3.73
2019-02-26T06:03:49.707Z,3.60
2019-02-26T06:04:48.733Z,3.62
2019-02-26T06:05:49.587Z,3.51
2019-02-26T06:06:50.434Z,3.42
2019-02-26T06:07:48.703Z,3.50
2019-02-26T06:08:48.699Z,3.44
2019-02-26T06:09:50.927Z,3.36
2019-02-26T06:10:48.682Z,3.34
2019-02-26T06:11:50.119Z,3.32
2019-02-26T06:12:48.664Z,3.34
2019-02-26T06:13:48.659Z,3.28
2019-02-26T06:14:48.654Z,3.23
2019-02-26T06:15:51.257Z,3.16
2019-02-26T06:16:50.258Z,3.16
2019-02-26T06:17:50.693Z,3.14
2019-02-26T06:18:49.096Z,3.18
2019-02-26T06:19:48.616Z,3.16
2019-02-26T06:20:50.553Z,3.08
2019-02-26T06:21:49.713Z,3.05
2019-02-26T06:22:48.590Z,3.04
2019-02-26T06:23:48.580Z,2.92
2019-02-26T06:24:48.573Z,3.04
2019-02-26T06:25:48.567Z,2.98
2019-02-26T06:26:48.558Z,2.89
2019-02-26T06:27:48.550Z,2.97
2019-02-26T06:28:50.306Z,2.90
2019-02-26T06:29:52.799Z,2.85
2019-02-26T06:30:48.528Z,2.79
2019-02-26T06:31:49.408Z,2.83
2019-02-26T06:32:48.517Z,2.86
2019-02-26T06:33:50.461Z,2.79
2019-02-26T06:34:48.496Z,2.87
2019-02-26T06:35:48.488Z,2.83
2019-02-26T06:36:48.864Z,2.85
2019-02-26T06:37:48.473Z,2.77
2019-02-26T06:38:49.763Z,2.89
2019-02-26T06:39:50.615Z,2.92
2019-02-26T06:40:49.018Z,2.80
2019-02-26T06:41:49.165Z,2.80
2019-02-26T06:42:48.435Z,2.80
2019-02-26T06:43:50.297Z,2.86
2019-02-26T06:44:49.467Z,2.85
2019-02-26T06:45:48.411Z,2.82
2019-02-26T06:46:48.412Z,2.83
2019-02-26T06:47:50.743Z,2.89
2019-02-26T06:48:48.390Z,2.83
2019-02-26T06:49:50.213Z,2.89
2019-02-26T06:50:48.372Z,2.86
2019-02-26T06:51:49.816Z,2.85
2019-02-26T06:52:50.590Z,2.80
2019-02-26T06:53:49.779Z,2.85
2019-02-26T06:54:54.721Z,2.89
2019-02-26T06:55:48.335Z,2.90
2019-02-26T06:56:49.091Z,2.80
2019-02-26T06:57:50.896Z,2.86
2019-02-26T06:58:48.312Z,2.83
2019-02-26T06:59:48.305Z,2.82
2019-02-26T07:00:52.025Z,2.86
2019-02-26T07:01:48.287Z,2.92
2019-02-26T07:02:48.280Z,2.97
2019-02-26T07:03:48.273Z,3.01
2019-02-26T07:04:48.266Z,3.01
2019-02-26T07:05:48.258Z,2.97
2019-02-26T07:06:48.251Z,2.95
2019-02-26T07:07:48.242Z,3.00
2019-02-26T07:08:48.979Z,3.01
2019-02-26T07:09:48.227Z,3.00
2019-02-26T07:10:48.219Z,3.01
2019-02-26T07:11:48.211Z,2.98
2019-02-26T07:12:50.264Z,2.95
2019-02-26T07:13:48.199Z,3.11
2019-02-26T07:14:49.131Z,3.14
2019-02-26T07:15:48.181Z,3.18
2019-02-26T07:16:48.179Z,3.10
2019-02-26T07:17:48.165Z,3.22
2019-02-26T07:18:48.158Z,3.22
2019-02-26T07:19:48.155Z,3.23
2019-02-26T07:20:51.970Z,3.07
2019-02-26T07:21:50.408Z,3.13
2019-02-26T07:22:49.618Z,3.22
2019-02-26T07:23:48.117Z,3.21
2019-02-26T07:24:49.453Z,3.19
2019-02-26T07:25:48.107Z,3.22
2019-02-26T07:26:48.236Z,3.18
2019-02-26T07:27:48.087Z,3.28
2019-02-26T07:28:48.710Z,3.29
2019-02-26T07:29:51.712Z,3.34
2019-02-26T07:30:48.064Z,3.32
2019-02-26T07:31:49.594Z,3.31
2019-02-26T07:32:48.340Z,3.34
2019-02-26T07:33:48.043Z,3.50
2019-02-26T07:34:49.666Z,3.48
2019-02-26T07:35:48.026Z,3.44
2019-02-26T07:36:49.996Z,3.63
2019-02-26T07:37:48.012Z,3.69
2019-02-26T07:38:49.622Z,3.69
2019-02-26T07:39:49.588Z,3.84
2019-02-26T07:40:47.992Z,3.96
2019-02-26T07:41:49.323Z,3.96
2019-02-26T07:42:49.267Z,4.04
2019-02-26T07:43:49.375Z,4.01
2019-02-26T07:44:47.958Z,4.14
2019-02-26T07:45:47.951Z,4.23
2019-02-26T07:46:47.944Z,4.22
2019-02-26T07:47:49.130Z,4.17
2019-02-26T07:48:48.833Z,4.24
2019-02-26T07:49:47.922Z,4.17
2019-02-26T07:50:49.007Z,4.23
2019-02-26T07:51:47.906Z,4.34
2019-02-26T07:52:49.737Z,4.35
2019-02-26T07:53:50.579Z,4.37
2019-02-26T07:54:49.598Z,4.45
2019-02-26T07:55:47.879Z,4.49
2019-02-26T07:56:47.869Z,4.55
2019-02-26T07:57:48.904Z,4.63
2019-02-26T07:58:47.854Z,4.80
2019-02-26T07:59:50.101Z,4.73
2019-02-26T08:00:49.805Z,4.92
2019-02-26T08:01:49.655Z,4.99
2019-02-26T08:02:47.828Z,5.10
2019-02-26T08:03:48.798Z,5.26
2019-02-26T08:04:47.810Z,5.29
2019-02-26T08:05:47.805Z,5.39
2019-02-26T08:06:47.797Z,5.44
2019-02-26T08:07:48.636Z,5.59
2019-02-26T08:08:48.908Z,5.69
2019-02-26T08:09:47.775Z,5.80
2019-02-26T08:10:48.896Z,5.93
2019-02-26T08:11:49.063Z,6.17
2019-02-26T08:12:47.755Z,6.28
2019-02-26T08:13:49.324Z,6.31
2019-02-26T08:14:48.245Z,6.44
2019-02-26T08:15:47.733Z,6.63
2019-02-26T08:16:51.345Z,6.67
2019-02-26T08:17:50.324Z,6.74
2019-02-26T08:18:49.284Z,6.82
2019-02-26T08:19:49.374Z,6.96
2019-02-26T08:20:47.702Z,7.13
2019-02-26T08:21:47.846Z,7.23
2019-02-26T08:22:49.511Z,7.40
2019-02-26T08:23:48.324Z,7.42
2019-02-26T08:24:48.635Z,7.39
2019-02-26T08:25:47.666Z,7.35
2019-02-26T08:26:49.293Z,7.38
2019-02-26T08:27:49.333Z,7.50
2019-02-26T08:28:48.247Z,7.50
2019-02-26T08:29:49.343Z,7.60
2019-02-26T08:30:49.655Z,7.72
2019-02-26T08:31:49.342Z,7.73
2019-02-26T08:32:51.074Z,7.69
2019-02-26T08:33:50.922Z,7.82
2019-02-26T08:34:47.607Z,7.90
2019-02-26T08:35:47.600Z,8.05
2019-02-26T08:36:47.593Z,8.01
2019-02-26T08:37:47.589Z,8.03
2019-02-26T08:38:47.582Z,8.20
2019-02-26T08:39:47.575Z,8.19
2019-02-26T08:40:47.568Z,8.23
2019-02-26T08:41:47.561Z,8.34
2019-02-26T08:42:47.555Z,8.30
2019-02-26T08:43:49.613Z,8.45
2019-02-26T08:44:48.748Z,8.56
2019-02-26T08:45:47.536Z,8.64
2019-02-26T08:46:48.948Z,8.63
2019-02-26T08:47:47.526Z,8.70
2019-02-26T08:48:48.472Z,8.82
2019-02-26T08:49:47.589Z,8.82
2019-02-26T08:50:47.506Z,8.99
2019-02-26T08:51:47.498Z,9.10
2019-02-26T08:52:50.139Z,8.97
2019-02-26T08:53:49.130Z,9.14
2019-02-26T08:54:47.481Z,9.39
2019-02-26T08:55:47.475Z,9.39
2019-02-26T08:56:47.480Z,9.41
2019-02-26T08:57:51.024Z,9.58
2019-02-26T08:58:47.459Z,9.55
2019-02-26T08:59:49.519Z,9.64
2019-02-26T09:00:47.446Z,9.65
2019-02-26T09:01:47.441Z,9.72
2019-02-26T09:02:50.572Z,9.76
2019-02-26T09:03:48.240Z,9.79
2019-02-26T09:04:47.779Z,9.79
2019-02-26T09:05:49.259Z,9.97
2019-02-26T09:06:47.413Z,10.09
2019-02-26T09:07:50.113Z,9.95
2019-02-26T09:08:47.401Z,10.04
2019-02-26T09:09:47.673Z,9.92
2019-02-26T09:10:48.613Z,9.92
2019-02-26T09:11:47.384Z,9.99
2019-02-26T09:12:48.995Z,9.99
2019-02-26T09:13:47.373Z,10.19
2019-02-26T09:14:48.153Z,10.12
2019-02-26T09:15:47.363Z,10.26
2019-02-26T09:16:49.808Z,10.28
2019-02-26T09:17:47.353Z,10.34
2019-02-26T09:18:47.345Z,10.37
2019-02-26T09:19:47.340Z,10.31
2019-02-26T09:20:47.334Z,10.35
2019-02-26T09:21:49.740Z,10.51
2019-02-26T09:22:50.206Z,10.60
2019-02-26T09:23:49.501Z,10.61
2019-02-26T09:24:49.326Z,10.67
2019-02-26T09:25:51.489Z,10.74
2019-02-26T09:26:47.397Z,10.67
2019-02-26T09:27:47.299Z,10.81
2019-02-26T09:28:48.163Z,10.84
2019-02-26T09:29:49.610Z,10.89
2019-02-26T09:30:47.282Z,10.99
2019-02-26T09:31:47.278Z,11.00
2019-02-26T09:32:47.272Z,11.05
2019-02-26T09:33:47.269Z,11.18
2019-02-26T09:34:47.264Z,11.23
2019-02-26T09:35:47.988Z,11.36
2019-02-26T09:36:50.636Z,11.43
2019-02-26T09:37:47.902Z,11.48
2019-02-26T09:38:49.056Z,11.70
2019-02-26T09:39:47.238Z,11.84
2019-02-26T09:40:48.111Z,12.00
2019-02-26T09:41:47.229Z,12.20
2019-02-26T09:42:51.407Z,12.22
2019-02-26T09:43:48.127Z,12.28
2019-02-26T09:44:48.224Z,12.43
2019-02-26T09:45:48.311Z,12.57
2019-02-26T09:46:47.206Z,12.61
2019-02-26T09:47:47.915Z,12.80
2019-02-26T09:48:47.197Z,12.97
2019-02-26T09:49:49.073Z,13.42
2019-02-26T09:50:48.673Z,14.30
2019-02-26T09:51:47.183Z,15.25
2019-02-26T09:52:47.881Z,16.17
2019-02-26T09:53:47.639Z,17.01
2019-02-26T09:54:48.237Z,17.57
2019-02-26T09:55:47.172Z,17.94
2019-02-26T09:56:47.171Z,18.19
2019-02-26T09:57:47.168Z,18.49
2019-02-26T09:58:48.375Z,18.73
2019-02-26T09:59:47.170Z,18.70
2019-02-26T10:00:48.090Z,19.02
2019-02-26T10:01:47.169Z,18.89
2019-02-26T10:02:48.978Z,18.75
2019-02-26T10:03:47.172Z,19.15
2019-02-26T10:04:47.814Z,19.11
2019-02-26T10:05:48.237Z,19.21
2019-02-26T10:06:47.529Z,18.96
2019-02-26T10:07:47.181Z,18.93
2019-02-26T10:08:48.973Z,19.19
2019-02-26T10:09:48.439Z,19.18
2019-02-26T10:10:47.193Z,19.24
2019-02-26T10:11:48.915Z,19.51
2019-02-26T10:12:47.201Z,19.41
2019-02-26T10:13:48.985Z,18.92
2019-02-26T10:14:47.211Z,18.70
2019-02-26T10:15:47.216Z,18.83
2019-02-26T10:16:49.246Z,18.84
2019-02-26T10:17:47.252Z,19.00
2019-02-26T10:18:47.853Z,18.80
2019-02-26T10:19:47.240Z,18.86
2019-02-26T10:20:47.659Z,18.81
2019-02-26T10:21:47.253Z,18.98
2019-02-26T10:22:47.260Z,18.74
2019-02-26T10:23:49.622Z,18.73
2019-02-26T10:24:47.272Z,18.70
2019-02-26T10:25:47.285Z,18.35
2019-02-26T10:26:47.288Z,18.70
2019-02-26T10:27:47.867Z,18.53
2019-02-26T10:28:53.640Z,18.43
2019-02-26T10:29:47.612Z,18.92
2019-02-26T10:30:47.316Z,19.73
2019-02-26T10:31:47.320Z,19.71
2019-02-26T10:32:47.328Z,19.84
2019-02-26T10:33:48.936Z,19.66
2019-02-26T10:34:47.345Z,19.36
2019-02-26T10:35:49.380Z,19.18
2019-02-26T10:36:49.300Z,19.44
2019-02-26T10:37:47.366Z,19.27
2019-02-26T10:38:47.374Z,18.81
2019-02-26T10:39:49.373Z,18.73
2019-02-26T10:40:53.881Z,18.75
2019-02-26T10:41:47.397Z,18.75
2019-02-26T10:42:47.406Z,18.25
2019-02-26T10:43:47.417Z,18.22
2019-02-26T10:44:47.418Z,17.97
2019-02-26T10:45:48.322Z,18.03
2019-02-26T10:46:47.434Z,18.16
2019-02-26T10:47:48.890Z,17.97
2019-02-26T10:48:48.063Z,18.05
2019-02-26T10:49:48.951Z,17.87
2019-02-26T10:50:51.220Z,17.72
2019-02-26T10:51:47.469Z,17.80
2019-02-26T10:52:47.475Z,17.83
2019-02-26T10:53:47.483Z,17.78
2019-02-26T10:54:47.489Z,17.48
2019-02-26T10:55:47.495Z,17.74
2019-02-26T10:56:47.501Z,17.80
2019-02-26T10:57:47.820Z,17.76
2019-02-26T10:58:47.515Z,17.56
2019-02-26T10:59:47.522Z,17.31
2019-02-26T11:00:49.965Z,17.54
2019-02-26T11:01:49.668Z,17.64
2019-02-26T11:02:48.447Z,17.51
2019-02-26T11:03:49.322Z,17.16
2019-02-26T11:04:49.582Z,17.09
2019-02-26T11:05:48.793Z,17.42
2019-02-26T11:06:47.560Z,17.63
2019-02-26T11:07:47.567Z,17.71
2019-02-26T11:08:48.486Z,17.76
2019-02-26T11:09:50.078Z,17.82
2019-02-26T11:10:49.610Z,17.97
2019-02-26T11:11:47.584Z,17.97
2019-02-26T11:12:48.135Z,18.03
2019-02-26T11:13:51.082Z,17.82
2019-02-26T11:14:47.601Z,17.49
2019-02-26T11:15:48.891Z,17.29
2019-02-26T11:16:47.611Z,17.29
2019-02-26T11:17:48.027Z,17.60
2019-02-26T11:18:47.737Z,17.70
2019-02-26T11:19:47.973Z,17.80
2019-02-26T11:20:49.740Z,18.20
2019-02-26T11:21:49.545Z,18.23
2019-02-26T11:22:49.618Z,18.31
2019-02-26T11:23:47.642Z,18.13
2019-02-26T11:24:48.464Z,18.05
2019-02-26T11:25:47.655Z,18.01
2019-02-26T11:26:47.656Z,18.03
2019-02-26T11:27:48.497Z,17.94
2019-02-26T11:28:47.958Z,17.74
2019-02-26T11:29:47.668Z,17.64
2019-02-26T11:30:49.193Z,17.48
2019-02-26T11:31:49.564Z,17.31
2019-02-26T11:32:47.701Z,17.08
2019-02-26T11:33:48.164Z,17.08
2019-02-26T11:34:47.692Z,17.19
2019-02-26T11:35:49.418Z,17.15
2019-02-26T11:36:47.696Z,17.06
2019-02-26T11:37:49.843Z,17.12
2019-02-26T11:38:47.704Z,17.33
2019-02-26T11:39:47.708Z,17.45
2019-02-26T11:40:47.711Z,17.51
2019-02-26T11:41:48.259Z,17.56
2019-02-26T11:42:49.359Z,17.41
2019-02-26T11:43:47.718Z,17.63
2019-02-26T11:44:47.723Z,17.95
2019-02-26T11:45:47.727Z,18.28
2019-02-26T11:46:49.486Z,18.26
2019-02-26T11:47:47.731Z,18.07
2019-02-26T11:48:50.015Z,18.15
2019-02-26T11:49:47.740Z,18.18
2019-02-26T11:50:47.744Z,17.95
2019-02-26T11:51:47.747Z,18.10
2019-02-26T11:52:51.899Z,18.08
2019-02-26T11:53:47.752Z,18.05
2019-02-26T11:54:47.754Z,17.90
2019-02-26T11:55:49.350Z,17.86
2019-02-26T11:56:49.803Z,17.71
2019-02-26T11:57:49.726Z,17.45
2019-02-26T11:58:47.766Z,17.34
2019-02-26T11:59:47.767Z,17.06
2019-02-26T12:00:50.211Z,17.02
2019-02-26T12:01:47.773Z,17.01
2019-02-26T12:02:47.777Z,17.02
2019-02-26T12:03:47.779Z,17.01
2019-02-26T12:04:47.781Z,17.02
2019-02-26T12:05:47.786Z,17.08
2019-02-26T12:06:47.787Z,17.20
2019-02-26T12:07:48.811Z,17.31
2019-02-26T12:08:49.938Z,17.33
2019-02-26T12:09:47.793Z,17.29
2019-02-26T12:10:47.796Z,17.19
2019-02-26T12:11:47.796Z,17.11
2019-02-26T12:12:48.507Z,17.14
2019-02-26T12:13:50.087Z,17.09
2019-02-26T12:14:48.492Z,17.02
2019-02-26T12:15:47.804Z,17.05
2019-02-26T12:16:47.804Z,16.99
2019-02-26T12:17:49.296Z,16.96
2019-02-26T12:18:47.809Z,17.01
2019-02-26T12:19:48.635Z,17.02
2019-02-26T12:20:48.757Z,16.89
2019-02-26T12:21:49.432Z,16.96
2019-02-26T12:22:49.652Z,16.99
2019-02-26T12:23:47.814Z,17.05
2019-02-26T12:24:50.626Z,17.02
2019-02-26T12:25:49.966Z,17.09
2019-02-26T12:26:49.636Z,17.02
2019-02-26T12:27:48.197Z,17.02
2019-02-26T12:28:47.820Z,17.06
2019-02-26T12:29:48.277Z,17.11
2019-02-26T12:30:47.823Z,17.19
2019-02-26T12:31:47.825Z,17.23
2019-02-26T12:32:50.050Z,17.06
2019-02-26T12:33:47.826Z,16.99
2019-02-26T12:34:48.533Z,16.96
2019-02-26T12:35:47.826Z,17.01
2019-02-26T12:36:48.135Z,17.01
2019-02-26T12:37:50.147Z,17.06
2019-02-26T12:38:50.106Z,17.20
2019-02-26T12:39:49.732Z,17.15
2019-02-26T12:40:49.947Z,17.05
2019-02-26T12:41:48.116Z,17.11
2019-02-26T12:42:47.833Z,17.16
2019-02-26T12:43:47.844Z,17.29
2019-02-26T12:44:47.836Z,17.46
2019-02-26T12:45:47.838Z,17.51
2019-02-26T12:46:48.427Z,17.45
2019-02-26T12:47:49.383Z,17.39
2019-02-26T12:48:50.161Z,17.34
2019-02-26T12:49:47.838Z,17.33
2019-02-26T12:50:47.844Z,17.31
2019-02-26T12:51:50.322Z,17.27
2019-02-26T12:52:50.925Z,17.27
2019-02-26T12:53:49.975Z,17.24
2019-02-26T12:54:47.841Z,17.22
2019-02-26T12:55:47.841Z,17.20
2019-02-26T12:56:48.923Z,17.26
2019-02-26T12:57:49.856Z,17.26
2019-02-26T12:58:51.152Z,17.33
2019-02-26T12:59:47.842Z,17.26
2019-02-26T13:00:47.843Z,17.26
2019-02-26T13:01:49.295Z,17.29
2019-02-26T13:02:49.459Z,17.39
2019-02-26T13:03:53.861Z,17.31
2019-02-26T13:04:50.876Z,17.39
2019-02-26T13:05:49.240Z,17.31
2019-02-26T13:06:48.512Z,17.39
2019-02-26T13:07:47.848Z,17.39
2019-02-26T13:08:49.742Z,17.48
2019-02-26T13:09:51.282Z,17.52
2019-02-26T13:10:51.525Z,17.49